Time;durP1;ratioP1;P1;durP2;ratioP2;P2;SDS_P1;SDS_P2;PMS_P1;PMS_P2;Temp;Humidity;BMP_temperature;BMP_pressure;BME280_temperature;BME280_humidity;BME280_pressure;Samples;Min_cycle;Max_cycle;Signal;HPM_P1;HPM_P2
2021/05/19 00:00:34;;;;;;;2.40;0.82;;;;;;;11.91;67.38;99261.84;4108759;34;32325;-96
2021/05/19 00:03:28;;;;;;;1.92;0.70;;;;;;;11.96;66.90;99261.25;4129533;34;33937;-96
2021/05/19 00:06:24;;;;;;;1.70;0.68;;;;;;;12.18;66.51;99257.31;4154380;34;33374;-96
2021/05/19 00:09:26;;;;;;;3.58;1.08;;;;;;;12.07;66.45;99257.94;4166416;34;20088;-96
2021/05/19 00:12:23;;;;;;;4.10;1.10;;;;;;;10.89;71.13;99256.41;4194617;34;32399;-96
2021/05/19 00:15:27;;;;;;;2.45;1.20;;;;;;;11.49;69.03;99242.22;4146432;34;32114;-96
2021/05/19 00:18:29;;;;;;;2.30;0.90;;;;;;;11.21;70.11;99254.03;4117364;34;32845;-96
2021/05/19 00:21:38;;;;;;;1.15;0.85;;;;;;;10.98;70.21;99251.66;4128977;34;33778;-96
2021/05/19 00:24:55;;;;;;;1.37;1.10;;;;;;;10.46;72.40;99234.16;4154442;34;32056;-96
2021/05/19 00:28:16;;;;;;;7.22;1.10;;;;;;;10.76;70.54;99242.81;4139490;34;33547;-96
2021/05/19 00:31:32;;;;;;;1.70;1.10;;;;;;;10.43;71.45;99243.47;4118647;34;34810;-96
2021/05/19 00:34:30;;;;;;;1.67;0.85;;;;;;;10.72;69.90;99236.19;4129526;34;32820;-96
2021/05/19 00:37:22;;;;;;;1.98;0.88;;;;;;;11.26;68.10;99234.50;4123372;34;33760;-96
2021/05/19 00:40:28;;;;;;;1.70;1.27;;;;;;;11.03;68.66;99235.69;4136956;34;34687;-96
2021/05/19 00:43:23;;;;;;;3.20;1.10;;;;;;;11.22;68.02;99233.22;4142499;34;33089;-95
2021/05/19 00:46:30;;;;;;;4.35;1.70;;;;;;;10.90;68.89;99244.56;4102976;35;33634;-96
2021/05/19 00:49:45;;;;;;;;;;;;;;;;;;;;;
2021/05/19 00:53:14;;;;;;;1.65;1.20;;;;;;;10.49;70.33;99260.78;4113235;34;35900;-96
2021/05/19 00:56:26;;;;;;;5.10;1.90;;;;;;;10.26;71.27;99251.03;4132881;34;33501;-96
2021/05/19 00:59:34;;;;;;;2.85;1.62;;;;;;;9.83;74.08;99245.72;4131631;34;33784;-96
2021/05/19 01:03:15;;;;;;;5.05;1.48;;;;;;;10.58;70.67;99237.94;4116029;34;32050;-96
2021/05/19 01:10:09;;;;;;;1.95;1.02;;;;;;;9.99;72.72;99264.34;4136439;34;33334;-96
2021/05/19 01:13:19;;;;;;;2.72;1.23;;;;;;;9.43;74.50;99257.00;4126226;34;33053;-96
2021/05/19 01:16:47;;;;;;;2.80;1.48;;;;;;;10.21;71.41;99256.22;4100921;34;33917;-96
2021/05/19 01:19:52;;;;;;;1.92;1.20;;;;;;;9.31;73.60;99262.06;4095898;35;34163;-96
2021/05/19 01:23:32;;;;;;;;;;;;;;;;;;;;;
2021/05/19 01:26:46;;;;;;;3.42;1.50;;;;;;;9.27;72.49;99263.44;4031108;35;32084;-95
2021/05/19 01:30:24;;;;;;;2.72;1.80;;;;;;;8.96;74.29;99259.16;4051726;35;33757;-96
2021/05/19 01:34:01;;;;;;;;;;;;;;;;;;;;;
2021/05/19 01:37:26;;;;;;;1.90;1.55;;;;;;;9.30;77.34;99254.97;4096479;35;20118;-93
2021/05/19 01:40:14;;;;;;;;;;;;;;;;;;;;;
2021/05/19 01:43:52;;;;;;;2.65;1.83;;;;;;;9.52;76.73;99260.38;4094876;35;32321;-96
2021/05/19 01:46:54;;;;;;;5.55;1.83;;;;;;;9.58;76.71;99258.78;4068782;35;32625;-95
2021/05/19 01:49:50;;;;;;;2.42;1.62;;;;;;;10.13;74.26;99250.94;4077052;35;33145;-96
2021/05/19 01:53:39;;;;;;;2.92;1.92;;;;;;;10.03;74.75;99253.97;4085307;34;33389;-96
2021/05/19 01:56:55;;;;;;;2.12;1.50;;;;;;;10.04;74.48;99258.34;4136947;34;32041;-96
2021/05/19 02:00:08;;;;;;;4.85;1.77;;;;;;;10.47;72.16;99258.28;4110728;34;33157;-95
2021/05/19 02:03:11;;;;;;;4.68;1.33;;;;;;;10.36;72.10;99246.16;4109133;34;34038;-95
2021/05/19 02:06:30;;;;;;;2.78;1.40;;;;;;;10.34;72.49;99247.37;4113119;34;33503;-96
2021/05/19 02:09:31;;;;;;;4.80;1.80;;;;;;;10.39;71.97;99251.16;4118365;34;33378;-96
2021/05/19 02:12:29;;;;;;;2.87;1.92;;;;;;;10.23;72.55;99257.66;4115359;34;33912;-96
2021/05/19 02:15:20;;;;;;;2.42;1.33;;;;;;;10.35;72.78;99254.47;4124631;34;33159;-96
2021/05/19 02:18:21;;;;;;;4.12;1.70;;;;;;;10.96;70.25;99259.16;4116933;34;33041;-96
2021/05/19 02:21:24;;;;;;;2.37;1.62;;;;;;;11.13;69.78;99263.16;4134351;34;32108;-96
2021/05/19 02:24:36;;;;;;;3.47;1.90;;;;;;;11.18;69.30;99259.00;4134462;34;33069;-96
2021/05/19 02:27:36;;;;;;;2.15;1.50;;;;;;;10.63;71.23;99256.28;4135087;34;34401;-95
2021/05/19 02:30:41;;;;;;;;;;;;;;;10.05;73.30;99249.22;4146617;34;32908;-96
2021/05/19 02:33:46;;;;;;;4.22;1.45;;;;;;;9.54;75.17;99259.16;4160969;34;20046;-96
2021/05/19 02:36:41;;;;;;;3.47;2.15;;;;;;;9.93;72.01;99246.22;4153746;34;32801;-96
2021/05/19 02:39:35;;;;;;;3.47;1.90;;;;;;;9.61;74.77;99248.44;4148321;34;34487;-95
2021/05/19 02:42:32;;;;;;;2.80;2.03;;;;;;;9.49;76.17;99249.97;4147211;34;32941;-95
2021/05/19 02:45:34;;;;;;;3.60;1.87;;;;;;;9.58;75.96;99256.94;4144973;34;32115;-95
2021/05/19 02:48:17;;;;;;;4.40;2.42;;;;;;;9.80;75.44;99246.94;4146378;34;34066;-96
2021/05/19 02:51:35;;;;;;;2.83;1.95;;;;;;;9.47;76.73;99252.84;4141419;34;34307;-95
2021/05/19 02:54:33;;;;;;;3.67;1.73;;;;;;;9.66;76.08;99250.56;4162862;34;35564;-96
2021/05/19 02:57:14;;;;;;;4.28;1.70;;;;;;;9.78;75.42;99249.00;4150536;34;32285;-94
2021/05/19 03:00:18;;;;;;;1.98;1.42;;;;;;;9.92;74.60;99244.53;4182963;34;32795;-96
2021/05/19 03:03:04;;;;;;;2.45;1.50;;;;;;;10.23;73.70;99243.34;4159988;34;35672;-96
2021/05/19 03:06:08;;;;;;;2.65;1.60;;;;;;;11.08;70.75;99241.31;4152396;34;33162;-95
2021/05/19 03:09:08;;;;;;;4.93;1.15;;;;;;;11.29;69.39;99239.50;4149800;34;32960;-95
2021/05/19 03:12:42;;;;;;;2.37;1.30;;;;;;;10.82;71.56;99246.59;4132906;34;33506;-96
2021/05/19 03:16:04;;;;;;;1.70;1.30;;;;;;;10.33;73.14;99248.38;4092852;35;34241;-96
2021/05/19 03:19:11;;;;;;;2.25;1.60;;;;;;;10.37;73.41;99246.97;4065678;35;32168;-96
2021/05/19 03:22:22;;;;;;;2.85;1.42;;;;;;;10.75;71.87;99252.81;4059854;35;32567;-96
2021/05/19 03:25:40;;;;;;;3.35;1.52;;;;;;;10.99;70.80;99250.62;4132677;29;20113;-96
2021/05/19 03:33:56;;;;;;;2.33;1.08;;;;;;;11.48;69.98;99252.22;4100468;29;20125;-95
2021/05/19 03:36:52;;;;;;;;;;;;;;;;;;;;;
2021/05/19 03:39:56;;;;;;;1.75;1.00;;;;;;;11.03;71.28;99257.31;4115419;34;34388;-96
2021/05/19 03:43:31;;;;;;;1.85;1.37;;;;;;;11.42;70.24;99255.75;585818;29;20602;-92
2021/05/19 03:46:59;;;;;;;;;;;;;;;;;;;;;
2021/05/19 03:50:34;;;;;;;1.97;1.80;;;;;;;11.43;71.05;99265.53;4315171;29;20090;-96
2021/05/19 03:58:01;;;;;;;2.08;1.40;;;;;;;11.77;70.86;99252.06;1160638;29;20395;-95
2021/05/19 04:24:00;;;;;;;4.47;1.83;;;;;;;12.53;68.67;99278.72;4838474;28;20102;-96
2021/05/19 04:32:10;;;;;;;2.70;1.90;;;;;;;12.06;69.67;99266.25;4681597;29;33587;31
2021/05/19 04:36:41;;;;;;;6.15;1.90;;;;;;;12.10;70.22;99262.94;4412203;29;20081;31
2021/05/19 04:40:34;;;;;;;2.78;1.92;;;;;;;12.11;69.71;99261.87;4283635;29;20105;-95
2021/05/19 04:49:00;;;;;;;;;;;;;;;;;;;;;
2021/05/19 04:51:58;;;;;;;4.25;1.50;;;;;;;13.00;66.87;99275.88;3995378;35;33709;-96
2021/05/19 04:54:39;;;;;;;3.78;1.60;;;;;;;13.29;66.48;99276.34;3971377;36;33531;-95
2021/05/19 04:57:38;;;;;;;8.45;1.73;;;;;;;13.60;66.11;99264.72;4001979;35;33148;-93
2021/05/19 05:00:37;;;;;;;;;;;;;;;;;;;;;
2021/05/19 05:12:19;;;;;;;5.07;1.60;;;;;;;13.94;63.25;99268.03;4240407;29;20453;-96
2021/05/19 05:16:21;;;;;;;1.83;1.48;;;;;;;13.71;62.72;99268.66;4092083;34;34718;-96
2021/05/19 05:28:40;;;;;;;;;;;;;;;;;;;;;
2021/05/19 05:31:26;;;;;;;1.87;1.75;;;;;;;13.39;65.18;99292.22;4192290;29;31586;-96
2021/05/19 05:39:09;;;;;;;2.45;1.70;;;;;;;14.16;62.59;99286.69;4065823;35;32506;-96
2021/05/19 05:42:30;;;;;;;4.00;1.70;;;;;;;14.90;60.28;99291.44;4101602;34;33419;-96
2021/05/19 05:45:27;;;;;;;6.68;1.80;;;;;;;14.77;59.24;99284.25;4127480;34;32690;-95
2021/05/19 05:48:49;;;;;;;1.87;1.40;;;;;;;14.57;61.02;99279.00;4131418;34;33164;-96
2021/05/19 05:52:12;;;;;;;3.03;1.75;;;;;;;14.90;60.37;99272.41;4116962;34;33757;-96
2021/05/19 05:55:33;;;;;;;3.60;1.85;;;;;;;14.63;61.28;99276.22;4115089;34;33901;-96
2021/05/19 05:58:58;;;;;;;4.97;2.15;;;;;;;14.11;61.38;99283.81;4136792;34;33213;-96
2021/05/19 06:02:42;;;;;;;3.53;1.87;;;;;;;14.29;62.79;99280.31;4114816;34;32501;-96
2021/05/19 06:06:25;;;;;;;2.47;1.83;;;;;;;14.88;60.60;99282.66;4139157;34;20117;-96
2021/05/19 06:18:35;;;;;;;;;;;;;;;;;;;;;
2021/05/19 06:22:20;;;;;;;7.70;2.25;;;;;;;14.76;60.31;99285.31;4120365;34;32688;-96
2021/05/19 06:25:54;;;;;;;;;;;;;;;;;;;;;
2021/05/19 06:29:33;;;;;;;3.47;1.73;;;;;;;16.24;59.56;99276.78;4430339;29;34609;-95
2021/05/19 06:33:30;;;;;;;6.30;2.30;;;;;;;15.28;58.77;99271.28;4454643;29;20477;-96
2021/05/19 06:37:03;;;;;;;2.78;1.60;;;;;;;16.14;57.30;99271.13;4087518;35;32490;-96
2021/05/19 06:40:07;;;;;;;2.92;1.60;;;;;;;16.80;55.76;99265.53;4088241;35;34297;-95
2021/05/19 06:43:22;;;;;;;2.70;2.03;;;;;;;16.41;56.81;99264.13;4094613;35;34179;-96
2021/05/19 06:47:19;;;;;;;3.12;1.60;;;;;;;15.58;58.35;99265.84;4116778;34;34349;-96
2021/05/19 06:50:41;;;;;;;2.12;1.62;;;;;;;16.56;56.45;99260.09;4099441;34;32963;-96
2021/05/19 06:54:34;;;;;;;3.42;1.75;;;;;;;16.10;56.31;99267.19;4082289;35;33143;-96
2021/05/19 06:58:07;;;;;;;3.53;1.58;;;;;;;16.69;56.72;99262.56;4077352;34;34533;-96
2021/05/19 07:06:04;;;;;;;1.92;1.62;;;;;;;17.47;53.19;99257.62;4068629;35;34477;-96
2021/05/19 07:10:05;;;;;;;;;;;;;;;;;;;;;
2021/05/19 07:13:17;;;;;;;3.15;1.77;;;;;;;16.80;54.15;99260.88;4121286;34;33400;-95
2021/05/19 07:17:46;;;;;;;;;;;;;;;;;;;;;
2021/05/19 07:20:30;;;;;;;4.97;1.55;;;;;;;18.06;51.99;99256.47;4142626;34;32298;-95
2021/05/19 07:24:09;;;;;;;2.67;1.80;;;;;;;17.80;51.95;99253.28;4136719;34;34454;-94
2021/05/19 07:32:30;;;;;;;;;;;;;;;;;;;;;
2021/05/19 07:35:56;;;;;;;9.32;2.05;;;;;;;18.31;51.37;99241.56;4111722;34;33739;-96
2021/05/19 08:03:20;;;;;;;6.12;1.67;;;;;;;20.14;45.89;99223.94;4145401;34;30681;-95
2021/05/19 08:06:52;;;;;;;2.97;1.80;;;;;;;19.41;46.53;99230.66;4120697;34;20117;-96
2021/05/19 08:10:59;;;;;;;4.37;1.83;;;;;;;19.85;48.36;99223.41;752646;29;20401;31
2021/05/19 08:17:43;;;;;;;2.92;2.28;;;;;;;20.05;46.48;99209.06;1308692;29;20581;-92
2021/05/19 08:20:35;;;;;;;3.25;1.67;;;;;;;19.88;47.17;99211.94;4169019;34;33211;-95
2021/05/19 08:23:28;;;;;;;3.75;1.92;;;;;;;19.47;47.52;99219.75;4160226;34;34645;-96
2021/05/19 08:26:54;;;;;;;3.25;2.03;;;;;;;20.76;45.12;99213.34;4162567;34;33727;-96
2021/05/19 08:30:42;;;;;;;4.80;2.33;;;;;;;21.46;45.05;99215.78;794639;28;20612;-93
2021/05/19 08:34:14;;;;;;;4.12;1.98;;;;;;;19.45;47.35;99216.47;4424867;29;33955;-96
2021/05/19 08:37:08;;;;;;;2.90;1.80;;;;;;;18.49;50.49;99216.66;4101855;35;31744;-96
2021/05/19 08:40:28;;;;;;;4.93;1.98;;;;;;;18.07;51.20;99214.41;4200635;28;20132;-93
2021/05/19 08:43:13;;;;;;;3.78;2.05;;;;;;;18.59;50.57;99212.41;4136811;34;33146;-96
2021/05/19 08:46:38;;;;;;;3.85;2.40;;;;;;;18.68;50.17;99205.41;4133182;34;20160;-96
2021/05/19 08:49:50;;;;;;;6.90;2.20;;;;;;;19.15;48.79;99207.66;4104789;34;32560;-96
2021/05/19 08:52:31;;;;;;;4.20;3.27;;;;;;;20.21;47.55;99199.84;4113794;34;34040;-92
2021/05/19 08:59:59;;;;;;;2.95;2.60;;;;;;;18.80;49.89;99195.19;4416094;29;32945;-95
2021/05/19 09:21:34;;;;;;;4.12;2.55;;;;;;;21.14;42.69;99184.66;1346238;29;20353;-94
2021/05/19 09:24:42;;;;;;;6.80;2.70;;;;;;;20.91;43.52;99183.22;4080465;35;31742;-94
2021/05/19 09:27:51;;;;;;;7.05;2.62;;;;;;;21.54;43.47;99184.22;4106997;34;34569;-93
2021/05/19 09:30:44;;;;;;;3.72;2.20;;;;;;;22.61;41.87;99171.47;4156814;34;33894;-93
2021/05/19 09:33:28;;;;;;;3.05;2.20;;;;;;;22.57;40.50;99173.94;4151515;34;33067;-93
2021/05/19 09:36:18;;;;;;;4.75;2.47;;;;;;;20.31;44.87;99170.81;4152522;34;33523;-93
2021/05/19 09:38:53;;;;;;;2.47;2.03;;;;;;;20.66;45.00;99172.13;4147118;34;33835;-94
2021/05/19 09:42:00;;;;;;;2.97;2.42;;;;;;;21.99;44.62;99180.66;4138331;34;34260;-93
2021/05/19 09:45:31;;;;;;;3.47;2.25;;;;;;;21.73;42.66;99165.25;4157353;34;31903;-94
2021/05/19 09:48:34;;;;;;;3.47;2.08;;;;;;;21.46;43.44;99169.87;4142404;34;32825;-94
2021/05/19 09:51:36;;;;;;;5.57;2.80;;;;;;;21.87;42.31;99171.81;4123800;34;33466;-93
2021/05/19 09:54:47;;;;;;;4.12;2.25;;;;;;;21.08;42.91;99168.44;4143397;34;33785;-96
2021/05/19 09:57:27;;;;;;;3.75;2.03;;;;;;;21.49;44.45;99165.75;4140220;34;32118;-94
2021/05/19 10:00:03;;;;;;;3.65;2.00;;;;;;;21.57;43.89;99162.50;4134559;34;34092;-94
2021/05/19 10:02:48;;;;;;;2.95;1.40;;;;;;;21.85;43.79;99157.53;4140846;34;34601;-93
2021/05/19 10:05:39;;;;;;;3.30;1.30;;;;;;;21.57;43.91;99157.00;4140380;34;33497;-95
2021/05/19 10:08:21;;;;;;;4.00;1.58;;;;;;;21.46;40.05;99163.56;4134629;34;34345;-94
2021/05/19 10:11:01;;;;;;;2.95;1.52;;;;;;;21.10;40.57;99158.00;4140833;34;33418;-94
2021/05/19 10:13:44;;;;;;;5.70;1.50;;;;;;;21.39;41.43;99160.25;4152187;34;33256;-93
2021/05/19 10:16:25;;;;;;;4.25;1.48;;;;;;;20.77;41.34;99152.69;4124738;34;35686;-95
2021/05/19 10:19:06;;;;;;;3.42;1.77;;;;;;;21.16;42.89;99146.75;4134220;34;32557;-92
2021/05/19 10:21:43;;;;;;;4.87;1.80;;;;;;;21.34;42.49;99156.38;4155174;34;32667;-93
2021/05/19 10:25:20;;;;;;;3.25;1.80;;;;;;;20.83;43.17;99148.03;4144600;34;33198;-93
2021/05/19 10:28:21;;;;;;;2.62;1.50;;;;;;;20.32;47.11;99145.84;4136629;34;33763;-93
2021/05/19 10:31:21;;;;;;;3.00;1.75;;;;;;;20.19;48.28;99144.41;4168338;34;32734;-93
2021/05/19 10:34:17;;;;;;;2.85;1.67;;;;;;;19.91;49.87;99138.22;4174178;34;33064;-93
2021/05/19 10:36:52;;;;;;;4.18;1.75;;;;;;;20.11;49.84;99136.69;4165498;34;34524;-93
2021/05/19 10:39:29;;;;;;;1.95;1.70;;;;;;;19.87;52.08;99131.59;4181944;34;33032;-92
2021/05/19 10:42:41;;;;;;;2.42;1.70;;;;;;;20.19;50.21;99130.69;4176496;34;33761;-93
2021/05/19 10:45:33;;;;;;;3.92;2.40;;;;;;;20.15;51.84;99132.34;4173419;34;34217;-93
2021/05/19 10:48:30;;;;;;;7.35;2.75;;;;;;;20.46;49.59;99129.72;4164301;34;34350;-93
2021/05/19 10:52:01;;;;;;;;;;;;;;;;;;;;;
2021/05/19 10:58:33;;;;;;;3.00;1.80;;;;;;;19.54;51.84;99117.06;4174837;34;32016;-92
2021/05/19 11:01:10;;;;;;;3.03;2.03;;;;;;;20.32;51.14;99115.69;4171853;34;33842;-93
2021/05/19 11:04:20;;;;;;;3.30;2.03;;;;;;;20.19;48.10;99111.50;4181552;34;33062;-93
2021/05/19 11:07:00;;;;;;;3.65;2.55;;;;;;;19.58;49.40;99115.47;4180213;34;34541;-93
2021/05/19 11:09:45;;;;;;;4.68;2.62;;;;;;;19.83;51.87;99113.19;4189658;34;33193;-93
2021/05/19 11:13:03;;;;;;;4.32;2.20;;;;;;;19.84;50.44;99110.19;4171142;34;33675;-93
2021/05/19 11:16:10;;;;;;;3.35;2.40;;;;;;;20.17;51.59;99108.19;4180882;34;31971;-93
2021/05/19 11:19:09;;;;;;;4.10;2.45;;;;;;;20.27;48.53;99102.75;4179722;34;33549;-93
2021/05/19 11:22:12;;;;;;;7.87;2.55;;;;;;;19.93;50.05;99108.59;4180865;34;34576;-93
2021/05/19 11:25:02;;;;;;;3.03;2.22;;;;;;;20.20;50.56;99104.91;4181602;34;32795;-94
2021/05/19 11:27:40;;;;;;;4.78;2.17;;;;;;;19.75;48.83;99095.28;4193675;34;35037;-93
2021/05/19 11:30:27;;;;;;;2.72;1.85;;;;;;;20.09;49.25;99103.22;4175916;34;32110;-93
2021/05/19 11:33:21;;;;;;;4.75;2.00;;;;;;;20.01;50.09;99104.53;4192005;34;33035;-94
2021/05/19 11:36:06;;;;;;;4.50;2.20;;;;;;;20.06;48.59;99095.50;4193632;34;33959;-94
2021/05/19 11:38:48;;;;;;;2.97;1.73;;;;;;;20.19;49.20;99102.44;4182835;34;32330;-94
2021/05/19 11:41:27;;;;;;;3.08;2.00;;;;;;;19.74;48.12;99096.38;4194697;34;32109;-95
2021/05/19 11:44:38;;;;;;;2.90;1.92;;;;;;;19.60;51.50;99100.69;4157310;34;34687;-94
2021/05/19 11:47:24;;;;;;;5.35;2.33;;;;;;;19.32;51.59;99108.09;4153157;34;33092;-94
2021/05/19 11:50:25;;;;;;;4.68;2.12;;;;;;;19.16;51.71;99104.38;4145157;34;33773;-94
2021/05/19 11:53:13;;;;;;;3.42;1.98;;;;;;;18.75;55.48;99112.97;4123258;34;33577;-95
2021/05/19 11:56:07;;;;;;;5.57;3.08;;;;;;;19.34;58.15;99122.34;4144375;34;34654;-94
2021/05/19 11:59:01;;;;;;;7.07;3.37;;;;;;;17.81;59.03;99129.25;4161644;34;36173;-94
2021/05/19 12:02:14;;;;;;;5.82;4.10;;;;;;;16.12;63.76;99132.31;4178228;34;32868;-93
2021/05/19 12:05:47;;;;;;;9.57;5.03;;;;;;;14.90;71.22;99129.03;4155776;34;33190;-96
2021/05/19 12:09:03;;;;;;;9.10;5.32;;;;;;;14.46;73.75;99136.44;4165636;34;32960;-94
2021/05/19 12:12:38;;;;;;;8.70;4.90;;;;;;;14.15;74.25;99138.28;4173922;34;34889;-96
2021/05/19 12:17:24;;;;;;;16.80;6.55;;;;;;;13.45;76.82;99162.94;4107014;34;34318;-96
2021/05/19 12:21:23;;;;;;;12.82;8.38;;;;;;;14.15;77.13;99149.16;4123353;34;31624;-96
2021/05/19 12:24:37;;;;;;;8.95;6.15;;;;;;;14.67;76.56;99156.13;4098665;34;33644;-96
2021/05/19 12:27:32;;;;;;;16.73;7.90;;;;;;;15.41;75.11;99159.47;4088308;35;32939;-96
2021/05/19 12:31:11;;;;;;;13.15;6.50;;;;;;;15.80;73.86;99159.91;4123545;34;33158;-96
2021/05/19 12:34:19;;;;;;;15.48;7.35;;;;;;;15.76;75.69;99163.31;4116813;34;32688;-96
2021/05/19 12:38:11;;;;;;;17.67;10.50;;;;;;;15.56;75.02;99169.94;4095829;35;20102;-96
2021/05/19 12:42:50;;;;;;;15.43;8.07;;;;;;;15.15;77.00;99175.16;4052058;35;33382;-96
2021/05/19 12:46:21;;;;;;;10.55;6.30;;;;;;;16.01;73.00;99196.66;4033781;35;34214;-96
2021/05/19 12:49:16;;;;;;;;;;;;;;;;;;;;;
2021/05/19 12:52:49;;;;;;;8.88;6.12;;;;;;;15.77;73.35;99208.59;4047517;35;32964;-96
2021/05/19 12:56:42;;;;;;;9.32;6.30;;;;;;;15.13;74.79;99206.38;4051930;35;34202;-96
2021/05/19 13:00:13;;;;;;;12.70;5.62;;;;;;;14.99;75.79;99206.53;4117805;34;34610;-95
2021/05/19 13:03:33;;;;;;;9.60;6.68;;;;;;;14.88;75.26;99199.19;4101061;34;33460;-96
2021/05/19 13:06:53;;;;;;;9.75;5.65;;;;;;;15.26;76.50;99186.31;4095264;35;34257;-96
2021/05/19 13:10:26;;;;;;;16.25;11.65;;;;;;;15.48;75.24;99183.91;4097440;34;34309;-96
2021/05/19 13:16:34;;;;;;;6.50;4.43;;;;;;;15.67;71.23;99180.03;4115387;34;32186;-96
2021/05/19 13:19:38;;;;;;;8.90;4.82;;;;;;;15.64;72.09;99193.25;4113742;34;33771;-96
2021/05/19 13:22:54;;;;;;;5.95;4.37;;;;;;;15.59;72.01;99184.97;4124837;29;20105;-96
2021/05/19 13:26:39;;;;;;;7.40;3.80;;;;;;;15.92;69.95;99176.28;4079458;35;20126;-96
2021/05/19 13:29:56;;;;;;;;;;;;;;;15.48;72.46;99184.72;4070943;35;32560;-96
2021/05/19 13:39:26;;;;;;;7.40;5.43;;;;;;;15.14;73.93;99183.53;4047357;35;34094;-96
2021/05/19 13:42:11;;;;;;;7.85;4.55;;;;;;;15.27;71.63;99179.78;4074741;35;32347;-96
2021/05/19 13:45:15;;;;;;;5.60;3.53;;;;;;;15.32;72.77;99178.03;4069177;35;32763;-96
2021/05/19 13:48:33;;;;;;;6.25;2.83;;;;;;;15.04;72.65;99172.38;4116790;34;31855;-96
2021/05/19 13:51:31;;;;;;;2.80;2.08;;;;;;;15.17;72.05;99166.75;4146763;34;33980;-96
2021/05/19 13:55:01;;;;;;;2.87;2.05;;;;;;;15.42;70.66;99168.47;4170383;34;31931;-96
2021/05/19 13:58:07;;;;;;;4.10;2.25;;;;;;;15.25;70.94;99168.31;4144331;34;32897;-96
2021/05/19 14:01:11;;;;;;;5.05;2.75;;;;;;;14.91;73.80;99174.22;4148474;34;34752;-96
2021/05/19 14:04:28;;;;;;;5.68;3.78;;;;;;;15.44;72.26;99164.47;4128764;34;33962;-96
2021/05/19 14:07:41;;;;;;;8.73;3.12;;;;;;;14.88;74.97;99163.81;4167888;34;32855;-96
2021/05/19 14:10:50;;;;;;;7.68;2.90;;;;;;;15.12;74.89;99170.16;4177267;34;36296;-96
2021/05/19 14:13:52;;;;;;;5.47;2.55;;;;;;;15.29;73.14;99175.78;4176619;34;34246;-96
2021/05/19 14:27:55;;;;;;;6.40;2.30;;;;;;;15.04;71.00;99169.66;4188188;34;20171;-96
2021/05/19 14:31:00;;;;;;;4.00;2.50;;;;;;;15.15;73.45;99163.44;4172220;34;32453;-96
2021/05/19 14:34:32;;;;;;;3.30;2.62;;;;;;;15.70;70.45;99155.03;4177471;34;33875;-96
2021/05/19 15:02:20;;;;;;;7.10;3.25;;;;;;;14.41;76.17;99152.63;4119460;34;34379;-95
2021/05/19 15:06:05;;;;;;;6.03;3.17;;;;;;;14.41;76.28;99158.06;870706;28;21796;-96
2021/05/19 15:09:47;;;;;;;7.03;2.85;;;;;;;14.40;77.42;99151.81;4150351;34;20113;-96
2021/05/19 15:31:56;;;;;;;7.10;3.15;;;;;;;14.91;75.67;99133.41;4808020;29;20011;31
2021/05/19 15:35:17;;;;;;;5.33;2.83;;;;;;;15.24;74.38;99134.81;4116419;29;32194;-95
2021/05/19 16:26:22;;;;;;;6.47;3.05;;;;;;;14.60;74.88;99165.16;1192136;28;20258;-96
2021/05/19 17:49:28;;;;;;;;;;;;;;;;;;;;;
2021/05/19 18:03:51;;;;;;;3.87;2.30;;;;;;;13.47;76.90;99153.50;671563;28;20401;-93
2021/05/19 18:07:34;;;;;;;6.57;2.90;;;;;;;13.21;77.38;99149.91;757520;29;20405;-94
2021/05/19 18:11:00;;;;;;;7.12;3.12;;;;;;;13.38;77.09;99147.56;4126383;34;30524;-96
2021/05/19 18:14:44;;;;;;;4.28;2.58;;;;;;;13.47;76.56;99149.97;4133367;34;32199;-97
2021/05/19 18:18:04;;;;;;;4.53;2.65;;;;;;;13.58;75.64;99152.81;4141489;34;32713;-96
2021/05/19 18:33:38;;;;;;;3.25;2.58;;;;;;;13.72;75.89;99158.94;4157021;34;34790;-96
2021/05/19 18:36:55;;;;;;;4.18;2.37;;;;;;;13.67;75.91;99168.84;4133145;34;33965;-96
2021/05/19 18:41:28;;;;;;;3.37;2.30;;;;;;;13.23;77.21;99165.97;4197469;28;33290;-96
2021/05/19 18:44:56;;;;;;;7.85;2.87;;;;;;;13.10;77.66;99166.91;4213203;29;32336;-96
2021/05/19 18:52:14;;;;;;;4.56;2.90;;;;;;;13.23;77.26;99172.25;4725635;29;20237;31
2021/05/19 19:03:02;;;;;;;4.93;3.45;;;;;;;13.10;78.05;99175.03;947573;29;21905;-95
2021/05/19 19:07:01;;;;;;;4.37;3.50;;;;;;;13.58;76.11;99171.00;4038566;35;31993;-96
2021/05/19 19:21:44;;;;;;;8.18;4.85;;;;;;;12.80;79.51;99186.47;2811504;29;20428;-95
2021/05/19 19:47:00;;;;;;;8.27;5.00;;;;;;;13.63;75.69;99178.47;4488039;28;20626;-96
2021/05/19 19:50:59;;;;;;;;;;;;;;;;;;;;;
2021/05/19 19:58:57;;;;;;;9.52;5.87;;;;;;;13.20;77.74;99183.53;4155677;34;33796;-96
2021/05/19 20:02:50;;;;;;;5.50;4.50;;;;;;;12.42;80.10;99181.78;4484139;29;20082;-95
2021/05/19 20:06:08;;;;;;;6.25;4.15;;;;;;;13.02;78.61;99183.41;4139308;34;34161;-95
2021/05/19 20:09:29;;;;;;;11.02;5.03;;;;;;;12.89;79.00;99185.16;4109536;34;33907;-95
2021/05/19 20:12:43;;;;;;;6.93;4.55;;;;;;;12.83;79.41;99190.59;4137826;34;32419;-94
2021/05/19 20:16:11;;;;;;;5.53;4.70;;;;;;;13.28;77.36;99176.16;4120984;34;34476;-95
2021/05/19 20:19:33;;;;;;;5.00;3.62;;;;;;;13.41;77.54;99181.53;4096359;34;32693;-94
2021/05/19 20:22:36;;;;;;;6.00;3.83;;;;;;;12.86;78.81;99182.06;4118986;34;32978;-95
2021/05/19 20:30:40;;;;;;;;;;;;;;;;;;;;;
2021/05/19 20:38:04;;;;;;;5.55;3.30;;;;;;;12.53;79.95;99174.91;4182320;29;20878;-95
2021/05/19 20:41:30;;;;;;;4.30;2.80;;;;;;;12.55;79.65;99172.78;4033538;35;34684;-95
2021/05/19 20:44:59;;;;;;;5.05;3.53;;;;;;;12.05;82.25;99167.94;3992726;35;33587;-96
2021/05/19 20:48:34;;;;;;;5.20;3.15;;;;;;;12.25;81.85;99167.06;2338698;30;20439;-95
2021/05/19 20:55:50;;;;;;;5.97;3.87;;;;;;;12.26;81.79;99174.97;4023101;35;31994;-94
2021/05/19 20:59:20;;;;;;;5.90;3.53;;;;;;;12.34;81.69;99168.47;4073040;29;20115;-96
2021/05/19 21:02:57;;;;;;;;;;;;;;;;;;;;;
2021/05/19 21:06:26;;;;;;;4.45;3.25;;;;;;;12.84;80.40;99160.59;4014050;35;34570;-94
2021/05/19 21:13:47;;;;;;;4.53;3.55;;;;;;;12.59;81.07;99162.34;4048069;35;33386;-93
2021/05/19 21:17:29;;;;;;;;;;;;;;;;;;;;;
2021/05/19 21:21:36;;;;;;;5.78;3.87;;;;;;;12.31;81.98;99169.72;4065897;35;33485;-96
2021/05/19 21:24:46;;;;;;;5.95;3.87;;;;;;;12.06;83.06;99161.44;4048140;35;20115;-95
2021/05/19 21:27:58;;;;;;;6.30;4.55;;;;;;;12.12;82.76;99160.59;4060304;35;34156;-94
2021/05/19 21:30:57;;;;;;;6.10;3.83;;;;;;;12.51;81.57;99161.56;4068159;35;34982;-93
2021/05/19 21:33:42;;;;;;;6.65;4.95;;;;;;;12.49;81.61;99160.09;4084815;35;32314;-94
2021/05/19 21:36:35;;;;;;;8.57;4.60;;;;;;;12.44;81.70;99155.31;4057356;35;33571;-93
2021/05/19 21:39:28;;;;;;;7.03;4.15;;;;;;;12.47;81.50;99164.88;4113905;34;32898;-94
2021/05/19 21:42:39;;;;;;;6.20;4.03;;;;;;;12.35;81.92;99156.63;4121932;34;33530;-96
2021/05/19 21:45:14;;;;;;;3.95;3.50;;;;;;;12.39;82.08;99157.00;4124036;34;33412;-94
2021/05/19 21:48:06;;;;;;;4.10;3.42;;;;;;;12.17;82.25;99158.09;4127181;34;34714;-93
2021/05/19 21:50:40;;;;;;;6.70;3.80;;;;;;;12.16;82.79;99161.84;4107255;34;35076;-93
2021/05/19 21:53:19;;;;;;;6.50;4.32;;;;;;;12.27;82.63;99152.22;4120777;34;34306;-94
2021/05/19 21:55:54;;;;;;;8.05;5.03;;;;;;;12.43;81.84;99158.25;4124451;34;32901;-94
2021/05/19 21:58:43;;;;;;;7.57;4.05;;;;;;;12.51;81.58;99158.84;4115128;34;32114;-93
2021/05/19 22:01:18;;;;;;;15.02;4.62;;;;;;;12.52;81.85;99163.19;4122635;34;34505;-93
2021/05/19 22:04:08;;;;;;;4.45;3.70;;;;;;;12.75;80.81;99156.44;4118282;34;33605;-92
2021/05/19 22:06:44;;;;;;;5.00;3.55;;;;;;;12.47;82.05;99159.47;4134608;34;34043;-93
2021/05/19 22:09:19;;;;;;;4.93;3.62;;;;;;;12.66;81.67;99171.28;4122158;34;33347;-92
2021/05/19 22:11:52;;;;;;;6.78;3.20;;;;;;;12.85;80.94;99164.94;4122975;34;32573;-92
2021/05/19 22:14:29;;;;;;;5.45;3.45;;;;;;;12.89;81.01;99163.47;4122192;34;34494;-92
2021/05/19 22:17:09;;;;;;;5.12;2.60;;;;;;;12.83;80.53;99158.91;4122312;34;34562;-92
2021/05/19 22:22:35;;;;;;;5.47;1.90;;;;;;;13.01;79.71;99160.06;4111082;34;34376;-93
2021/05/19 22:25:26;;;;;;;7.62;2.05;;;;;;;13.38;77.93;99158.41;4100013;34;33835;-93
2021/05/19 22:28:00;;;;;;;6.75;2.25;;;;;;;13.23;78.38;99155.97;4129083;34;32723;-93
2021/05/19 22:30:34;;;;;;;4.57;2.90;;;;;;;13.23;78.99;99161.41;4117624;34;34151;-93
2021/05/19 22:33:07;;;;;;;5.45;2.42;;;;;;;13.03;79.53;99155.25;4110939;34;33817;-92
2021/05/19 22:35:45;;;;;;;5.50;2.78;;;;;;;12.83;80.43;99158.06;4134171;34;34927;-93
2021/05/19 22:38:17;;;;;;;5.50;2.40;;;;;;;13.07;79.46;99154.59;4123229;34;33242;-93
2021/05/19 22:40:51;;;;;;;3.75;2.22;;;;;;;13.13;78.63;99149.34;4123618;34;33572;-93